Time;durP1;ratioP1;P1;durP2;ratioP2;P2;SDS_P1;SDS_P2;PMS_P1;PMS_P2;Temp;Humidity;BMP_temperature;BMP_pressure;BME280_temperature;BME280_humidity;BME280_pressure;Samples;Min_cycle;Max_cycle;Signal;HPM_P1;HPM_P2
2021/03/17 00:01:51;;;;;;;13.70;12.10;;;9.60;83.00;;;;;;5089292;28;20709;-52
2021/03/17 00:04:18;;;;;;;18.40;11.73;;;9.60;83.10;;;;;;5074451;28;20671;-50
2021/03/17 00:06:44;;;;;;;12.33;10.47;;;9.70;83.20;;;;;;5086866;28;20666;-51
2021/03/17 00:09:11;;;;;;;12.37;9.60;;;9.70;83.20;;;;;;5091566;28;20692;-51
2021/03/17 00:11:39;;;;;;;10.30;9.20;;;9.70;83.60;;;;;;5091210;28;20720;-51
2021/03/17 00:14:06;;;;;;;13.30;10.40;;;9.70;84.10;;;;;;5092113;28;20663;-51
2021/03/17 00:16:32;;;;;;;12.03;8.90;;;9.80;84.20;;;;;;5091858;28;20620;-52
2021/03/17 00:18:59;;;;;;;10.17;8.30;;;9.70;84.00;;;;;;5091691;28;20655;-52
2021/03/17 00:21:26;;;;;;;10.43;8.80;;;9.70;84.10;;;;;;5091700;28;20680;-52
2021/03/17 00:23:53;;;;;;;10.67;9.37;;;9.70;84.90;;;;;;5092436;28;20628;-51
2021/03/17 00:26:19;;;;;;;12.67;10.03;;;9.70;85.00;;;;;;5071961;28;20629;-51
2021/03/17 00:28:47;;;;;;;15.13;10.63;;;9.70;85.60;;;;;;5071670;28;20649;-50
2021/03/17 00:31:14;;;;;;;13.50;9.70;;;9.70;86.20;;;;;;5083602;28;20668;-52
2021/03/17 00:33:41;;;;;;;13.40;9.90;;;9.70;86.60;;;;;;5085288;28;21037;-51
2021/03/17 00:36:07;;;;;;;12.50;10.50;;;9.80;87.30;;;;;;5092808;28;20651;-51
2021/03/17 00:38:34;;;;;;;9.20;8.30;;;9.70;86.20;;;;;;5091437;28;20652;-51
2021/03/17 00:41:01;;;;;;;9.30;7.43;;;9.70;86.10;;;;;;5092621;28;20680;-51
2021/03/17 00:43:28;;;;;;;10.00;8.30;;;9.70;86.00;;;;;;5092424;28;20709;-51
2021/03/17 00:45:55;;;;;;;11.10;7.60;;;9.60;86.20;;;;;;5090778;28;20701;-50
2021/03/17 00:48:22;;;;;;;9.70;7.57;;;9.60;86.50;;;;;;5087209;28;20663;-50
2021/03/17 00:50:49;;;;;;;9.53;8.63;;;9.60;86.50;;;;;;5075822;28;21062;-51
2021/03/17 00:53:16;;;;;;;8.70;7.23;;;9.60;86.50;;;;;;5073582;28;21209;-52
2021/03/17 00:55:42;;;;;;;10.80;7.77;;;9.60;86.20;;;;;;5086191;28;20624;-52
2021/03/17 00:58:09;;;;;;;9.53;7.87;;;9.60;86.10;;;;;;5085409;28;20656;-50
2021/03/17 01:00:36;;;;;;;8.23;7.37;;;9.60;86.50;;;;;;5072466;28;21081;-50
2021/03/17 01:03:04;;;;;;;8.10;6.70;;;9.60;86.70;;;;;;5072442;28;20682;-50
2021/03/17 01:05:31;;;;;;;9.97;8.90;;;9.60;86.80;;;;;;5083484;28;20664;-50
2021/03/17 01:07:57;;;;;;;9.90;8.83;;;9.50;86.60;;;;;;5082441;28;21172;-50
2021/03/17 01:10:25;;;;;;;10.77;9.47;;;9.50;86.60;;;;;;5085094;28;20700;-51
2021/03/17 01:12:52;;;;;;;11.00;7.13;;;9.50;86.90;;;;;;5091008;28;20656;-50
2021/03/17 01:15:20;;;;;;;9.93;8.93;;;9.50;86.80;;;;;;5091265;28;21121;-50
2021/03/17 01:17:47;;;;;;;11.37;9.27;;;9.50;87.30;;;;;;5092168;28;20689;-50
2021/03/17 01:20:15;;;;;;;9.80;8.10;;;9.50;87.50;;;;;;5091698;28;20691;-49
2021/03/17 01:22:42;;;;;;;10.20;9.10;;;9.50;87.40;;;;;;5088209;28;20652;-49
2021/03/17 01:25:10;;;;;;;9.90;8.90;;;9.50;87.70;;;;;;5070296;28;20617;-49
2021/03/17 01:27:37;;;;;;;9.60;8.67;;;9.50;87.80;;;;;;5076957;28;20674;-49
2021/03/17 01:30:04;;;;;;;12.40;8.77;;;9.50;88.00;;;;;;5090051;28;20696;-51
2021/03/17 01:32:31;;;;;;;9.37;8.40;;;9.50;88.10;;;;;;5084851;28;20670;-50
2021/03/17 01:34:58;;;;;;;9.90;8.90;;;9.50;88.50;;;;;;5078804;28;21152;-49
2021/03/17 01:37:25;;;;;;;11.97;9.67;;;9.60;88.40;;;;;;5091702;28;20624;-49
2021/03/17 01:39:52;;;;;;;13.73;8.70;;;9.50;88.40;;;;;;5071232;28;20664;-50
2021/03/17 01:42:19;;;;;;;9.70;8.67;;;9.60;88.80;;;;;;5071979;28;20635;-49
2021/03/17 01:44:45;;;;;;;13.70;10.10;;;9.50;89.00;;;;;;5080916;28;20649;-49
2021/03/17 01:47:12;;;;;;;12.27;10.97;;;9.50;89.10;;;;;;5091499;28;21215;-50
2021/03/17 01:49:39;;;;;;;10.30;9.20;;;9.60;89.60;;;;;;5091361;28;20692;-50
2021/03/17 01:52:06;;;;;;;12.27;10.30;;;9.50;89.20;;;;;;5091506;28;20642;-51
2021/03/17 01:54:34;;;;;;;10.70;9.60;;;9.50;89.30;;;;;;5091711;28;20975;-50
2021/03/17 01:57:00;;;;;;;11.30;9.97;;;9.50;89.50;;;;;;5091325;28;21204;-50
2021/03/17 01:59:27;;;;;;;11.33;10.13;;;9.50;89.50;;;;;;5091053;28;21033;-50
2021/03/17 02:01:54;;;;;;;10.73;9.53;;;9.50;89.80;;;;;;5089632;28;20665;-50
2021/03/17 02:04:20;;;;;;;10.87;9.80;;;9.60;90.40;;;;;;5091247;28;20659;-51
2021/03/17 02:06:49;;;;;;;11.23;10.13;;;9.50;90.80;;;;;;5090896;28;20624;-50
2021/03/17 02:09:15;;;;;;;11.67;10.47;;;9.60;91.00;;;;;;5091207;28;20656;-50
2021/03/17 02:11:43;;;;;;;11.20;10.10;;;9.60;90.70;;;;;;5091368;28;20686;-50
2021/03/17 02:14:20;;;;;;;11.73;9.90;;;9.60;90.40;;;;;;5091034;28;20616;-51
2021/03/17 02:16:48;;;;;;;13.77;10.33;;;9.50;90.30;;;;;;5089884;28;20662;-50
2021/03/17 02:19:45;;;;;;;14.07;9.67;;;9.50;90.30;;;;;;5090554;28;20659;-51
2021/03/17 02:22:35;;;;;;;11.30;10.20;;;9.50;90.30;;;;;;5090952;28;20611;-51
2021/03/17 02:25:04;;;;;;;11.37;9.47;;;9.50;90.00;;;;;;5091370;28;20677;-50
2021/03/17 02:28:08;;;;;;;14.03;11.13;;;9.50;90.30;;;;;;5091304;28;20682;-51
2021/03/17 02:31:12;;;;;;;14.73;12.17;;;9.50;90.10;;;;;;5087964;28;20698;-51
2021/03/17 02:33:55;;;;;;;14.57;12.53;;;9.40;90.10;;;;;;5059612;28;20636;-51
2021/03/17 02:36:27;;;;;;;12.97;11.67;;;9.50;90.10;;;;;;5077319;28;20632;-49
2021/03/17 02:38:56;;;;;;;18.87;13.63;;;9.50;90.30;;;;;;5092106;28;20628;-50
2021/03/17 02:41:24;;;;;;;14.83;12.53;;;9.50;90.20;;;;;;5095607;28;20683;-50
2021/03/17 02:43:54;;;;;;;16.23;13.00;;;9.50;90.10;;;;;;5095231;28;21164;-51
2021/03/17 02:46:21;;;;;;;16.57;11.87;;;9.50;90.20;;;;;;5074775;28;20658;-49
2021/03/17 02:48:55;;;;;;;17.90;14.77;;;9.40;90.20;;;;;;5074554;28;20656;-49
2021/03/17 02:51:24;;;;;;;19.00;16.10;;;9.40;90.40;;;;;;5085272;28;20699;-49
2021/03/17 02:53:51;;;;;;;17.17;15.33;;;9.40;90.50;;;;;;5095056;28;20671;-49
2021/03/17 02:56:17;;;;;;;17.97;14.90;;;9.50;90.30;;;;;;5095015;28;20655;-49
2021/03/17 02:58:45;;;;;;;19.30;16.90;;;9.40;90.20;;;;;;5094072;28;20693;-49
2021/03/17 03:01:15;;;;;;;18.83;16.13;;;9.50;90.20;;;;;;5094942;28;21490;-49
2021/03/17 03:03:41;;;;;;;19.00;15.67;;;9.50;90.30;;;;;;5094416;28;20655;-50
2021/03/17 03:06:09;;;;;;;22.43;16.07;;;9.40;90.10;;;;;;5094595;28;20666;-49
2021/03/17 03:08:37;;;;;;;22.90;16.93;;;9.40;90.50;;;;;;5094566;28;20650;-49
2021/03/17 03:11:04;;;;;;;19.60;14.30;;;9.40;90.30;;;;;;5093978;28;20684;-49
2021/03/17 03:13:31;;;;;;;20.40;15.93;;;9.40;90.30;;;;;;5094264;28;21239;-49
2021/03/17 03:15:58;;;;;;;19.40;16.80;;;9.30;90.30;;;;;;5092947;28;20627;-49
2021/03/17 03:18:24;;;;;;;19.60;16.20;;;9.30;90.40;;;;;;5093003;28;20663;-52
2021/03/17 03:20:51;;;;;;;20.40;15.40;;;9.30;90.40;;;;;;5094094;28;21244;-52
2021/03/17 03:23:19;;;;;;;20.50;17.70;;;9.30;90.60;;;;;;5094380;28;20956;-51
2021/03/17 03:25:46;;;;;;;20.77;17.40;;;9.30;90.60;;;;;;5093992;28;20660;-50
2021/03/17 03:28:12;;;;;;;21.10;16.07;;;9.40;90.60;;;;;;5091416;28;20666;-50
2021/03/17 03:30:40;;;;;;;20.10;17.13;;;9.30;90.60;;;;;;5092612;28;20671;-50
2021/03/17 03:33:08;;;;;;;21.70;16.87;;;9.30;90.70;;;;;;5091437;28;21775;-50
2021/03/17 03:35:34;;;;;;;22.37;17.80;;;9.30;90.70;;;;;;5093666;28;20620;-50
2021/03/17 03:38:03;;;;;;;21.33;16.40;;;9.40;90.70;;;;;;5093356;28;21031;-51
2021/03/17 03:40:31;;;;;;;20.67;16.97;;;9.30;90.60;;;;;;5093825;28;20686;-50
2021/03/17 03:42:58;;;;;;;22.37;17.90;;;9.30;90.70;;;;;;5093282;28;21176;-50
2021/03/17 03:45:24;;;;;;;22.57;18.03;;;9.30;90.70;;;;;;5093779;28;20648;-52
2021/03/17 03:47:51;;;;;;;21.30;16.73;;;9.30;90.70;;;;;;5093596;28;20659;-51
2021/03/17 03:50:19;;;;;;;20.20;17.03;;;9.40;90.70;;;;;;5093303;28;20759;-51
2021/03/17 03:52:49;;;;;;;24.90;18.80;;;9.40;90.70;;;;;;5093389;28;20655;-51
2021/03/17 03:55:19;;;;;;;24.40;17.90;;;9.30;90.80;;;;;;5093026;28;21197;-51
2021/03/17 03:57:47;;;;;;;23.10;17.17;;;9.40;90.90;;;;;;5092715;28;20671;-52
2021/03/17 04:00:16;;;;;;;17.47;15.63;;;9.40;90.90;;;;;;5093562;28;20647;-51
2021/03/17 04:02:44;;;;;;;21.13;16.43;;;9.30;90.90;;;;;;5093207;28;20680;-51
2021/03/17 04:05:17;;;;;;;22.90;18.40;;;9.30;90.90;;;;;;5093221;28;21032;-50
2021/03/17 04:07:46;;;;;;;22.33;18.37;;;9.30;90.90;;;;;;5093043;28;21212;-50
2021/03/17 04:10:14;;;;;;;23.07;17.40;;;9.40;90.90;;;;;;5093043;28;20679;-51
2021/03/17 04:12:42;;;;;;;24.13;18.33;;;9.30;90.90;;;;;;5093539;28;20973;-50
2021/03/17 04:15:10;;;;;;;19.83;17.60;;;9.30;90.90;;;;;;5091435;28;21090;-51
2021/03/17 04:17:39;;;;;;;24.73;18.77;;;9.30;90.90;;;;;;5089055;28;20751;-49
2021/03/17 04:20:08;;;;;;;22.03;17.00;;;9.30;90.80;;;;;;5088835;28;20694;-49
2021/03/17 04:22:35;;;;;;;20.40;18.17;;;9.30;90.80;;;;;;5091734;28;20668;-49
2021/03/17 04:25:02;;;;;;;23.57;20.03;;;9.30;90.90;;;;;;5093086;28;20620;-50
2021/03/17 04:27:29;;;;;;;21.10;18.77;;;9.30;90.90;;;;;;5092466;28;20654;-51
2021/03/17 04:29:56;;;;;;;21.30;19.00;;;9.30;90.80;;;;;;5092521;28;20656;-50
2021/03/17 04:32:23;;;;;;;24.33;18.20;;;9.30;90.80;;;;;;5092825;28;20663;-51
2021/03/17 04:34:50;;;;;;;23.00;17.80;;;9.30;90.80;;;;;;5080989;28;20673;-51
2021/03/17 04:37:17;;;;;;;24.37;18.90;;;9.30;90.80;;;;;;5072891;28;20668;-50
2021/03/17 04:39:44;;;;;;;22.50;18.40;;;9.30;90.80;;;;;;5083236;28;21036;-49
2021/03/17 04:42:10;;;;;;;21.30;18.40;;;9.40;90.90;;;;;;5091798;28;20663;-49
2021/03/17 04:44:37;;;;;;;22.37;18.40;;;9.40;91.00;;;;;;5092911;28;20970;-51
2021/03/17 04:47:04;;;;;;;19.30;17.30;;;9.30;90.80;;;;;;5092821;28;20643;-50
2021/03/17 04:49:31;;;;;;;21.33;18.07;;;9.30;91.00;;;;;;5092158;28;20910;-50
2021/03/17 04:51:58;;;;;;;22.83;18.97;;;9.30;91.10;;;;;;5092245;28;20690;-50
2021/03/17 04:54:25;;;;;;;26.80;18.37;;;9.20;91.20;;;;;;5091593;28;21278;-49
2021/03/17 04:56:51;;;;;;;21.17;17.50;;;9.20;91.20;;;;;;5092592;28;20639;-50
2021/03/17 04:59:20;;;;;;;29.90;19.03;;;9.20;91.50;;;;;;5093427;28;20623;-50
2021/03/17 05:01:47;;;;;;;22.17;17.80;;;9.20;91.20;;;;;;5091991;28;20699;-50
2021/03/17 05:04:14;;;;;;;23.50;19.80;;;9.10;91.20;;;;;;5091963;28;20659;-50
2021/03/17 05:06:43;;;;;;;26.23;18.57;;;9.10;91.20;;;;;;5092364;28;20661;-50
2021/03/17 05:09:10;;;;;;;27.80;20.67;;;9.10;91.20;;;;;;5087602;28;21050;-49
2021/03/17 05:11:37;;;;;;;23.50;17.70;;;9.10;91.20;;;;;;5083330;28;20696;-50
2021/03/17 05:14:04;;;;;;;22.20;16.73;;;9.00;91.00;;;;;;5091939;28;20643;-50
2021/03/17 05:16:30;;;;;;;26.23;19.53;;;9.00;91.00;;;;;;5091350;28;20664;-50
2021/03/17 05:18:59;;;;;;;21.10;15.87;;;9.00;90.90;;;;;;5079764;28;20619;-50
2021/03/17 05:21:25;;;;;;;22.33;17.37;;;8.90;91.30;;;;;;5092164;28;20655;-50
2021/03/17 05:23:53;;;;;;;19.40;16.73;;;8.90;91.00;;;;;;5092133;28;20631;-51
2021/03/17 05:26:20;;;;;;;22.77;16.70;;;8.90;91.10;;;;;;5087293;28;20655;-51
2021/03/17 05:28:46;;;;;;;19.33;16.30;;;8.90;90.90;;;;;;5072375;28;20670;-50
2021/03/17 05:31:13;;;;;;;19.90;15.87;;;8.90;91.00;;;;;;5073867;28;20704;-50
2021/03/17 05:33:40;;;;;;;20.10;16.77;;;8.80;91.00;;;;;;5089993;28;20627;-50
2021/03/17 05:36:07;;;;;;;23.40;16.93;;;8.80;91.00;;;;;;5092042;28;20626;-50
2021/03/17 05:38:34;;;;;;;19.90;16.60;;;8.80;91.00;;;;;;5087901;28;20650;-50
2021/03/17 05:41:02;;;;;;;20.43;17.13;;;8.80;91.00;;;;;;5084649;28;20670;-51
2021/03/17 05:43:28;;;;;;;22.47;17.73;;;8.80;91.10;;;;;;5091216;28;20642;-50
2021/03/17 05:45:56;;;;;;;22.03;17.37;;;8.80;91.20;;;;;;5091306;28;20989;-51
2021/03/17 05:48:22;;;;;;;21.23;17.07;;;8.80;91.20;;;;;;5090861;28;20704;-51
2021/03/17 05:50:49;;;;;;;19.80;16.27;;;8.80;91.20;;;;;;5087312;28;20695;-51
2021/03/17 05:53:16;;;;;;;23.23;17.53;;;8.70;91.20;;;;;;5090858;28;20621;-50
2021/03/17 05:55:43;;;;;;;23.40;17.60;;;8.80;91.30;;;;;;5081641;28;20635;-51
2021/03/17 05:58:11;;;;;;;20.80;17.73;;;8.70;91.20;;;;;;5070712;28;20628;-50
2021/03/17 06:00:38;;;;;;;19.47;17.37;;;8.80;91.10;;;;;;5071070;28;20675;-51
2021/03/17 06:03:07;;;;;;;21.37;17.77;;;8.70;91.30;;;;;;5089842;28;21254;-51
2021/03/17 06:05:34;;;;;;;24.90;17.50;;;8.70;91.40;;;;;;5090307;28;21247;-50
2021/03/17 06:08:03;;;;;;;23.20;18.20;;;8.70;91.40;;;;;;5090497;28;20631;-51
2021/03/17 06:10:30;;;;;;;20.10;17.10;;;8.70;91.40;;;;;;5090675;28;20733;-50
2021/03/17 06:13:00;;;;;;;28.20;19.60;;;8.80;91.40;;;;;;5090969;28;20621;-51
2021/03/17 06:15:28;;;;;;;20.33;17.00;;;8.80;91.20;;;;;;5090742;28;21259;-50
2021/03/17 06:17:57;;;;;;;20.87;16.80;;;8.90;91.30;;;;;;5090147;28;20654;-50
2021/03/17 06:20:24;;;;;;;23.27;17.53;;;8.90;91.60;;;;;;5088955;28;20652;-50
2021/03/17 06:22:51;;;;;;;19.50;15.97;;;8.90;91.40;;;;;;5091151;28;20686;-49
2021/03/17 06:25:17;;;;;;;25.33;18.83;;;8.90;91.40;;;;;;5106534;28;20665;-51
2021/03/17 06:27:44;;;;;;;21.07;17.93;;;9.00;91.30;;;;;;5090744;28;20639;-50
2021/03/17 06:30:12;;;;;;;26.90;19.20;;;9.00;91.50;;;;;;5089989;28;21191;-50
2021/03/17 06:32:40;;;;;;;21.90;16.40;;;9.00;91.20;;;;;;5089194;28;20676;-51
2021/03/17 06:35:16;;;;;;;22.27;18.60;;;9.00;91.20;;;;;;5090120;28;20662;-50
2021/03/17 06:37:43;;;;;;;19.00;16.20;;;8.90;91.10;;;;;;5090074;28;20722;-49
2021/03/17 06:40:21;;;;;;;22.10;18.97;;;8.90;91.20;;;;;;5090139;28;20676;-51
2021/03/17 06:42:47;;;;;;;20.80;17.30;;;8.90;91.10;;;;;;5070384;28;20714;-50
2021/03/17 06:45:14;;;;;;;20.10;16.03;;;8.90;91.10;;;;;;5070329;28;20660;-51
2021/03/17 06:47:42;;;;;;;24.27;19.17;;;8.90;91.10;;;;;;5069940;28;20735;-51
2021/03/17 06:50:12;;;;;;;21.57;17.17;;;8.90;91.30;;;;;;5070225;28;20683;-51
2021/03/17 06:52:40;;;;;;;18.33;16.33;;;8.90;91.30;;;;;;5082751;28;20676;-50
2021/03/17 06:55:11;;;;;;;24.07;18.37;;;8.90;91.10;;;;;;5090658;28;20620;-50
2021/03/17 06:57:39;;;;;;;20.07;17.73;;;9.00;91.10;;;;;;5091361;28;20624;-51
2021/03/17 07:00:33;;;;;;;26.17;19.60;;;9.00;91.10;;;;;;5090091;28;20644;-50
2021/03/17 07:03:01;;;;;;;22.97;18.40;;;9.00;91.00;;;;;;5054383;28;21239;-50
2021/03/17 07:05:39;;;;;;;25.83;18.90;;;9.10;91.00;;;;;;5090736;28;20676;-51
2021/03/17 07:08:07;;;;;;;22.70;18.60;;;9.10;90.90;;;;;;5089673;28;20922;-50
2021/03/17 07:10:36;;;;;;;19.70;16.27;;;9.10;91.00;;;;;;5089982;28;21077;-50
2021/03/17 07:13:04;;;;;;;18.63;16.10;;;9.10;91.10;;;;;;5090065;28;21104;-50
2021/03/17 07:15:31;;;;;;;18.47;16.47;;;9.10;91.00;;;;;;5090272;28;20678;-50
2021/03/17 07:18:15;;;;;;;21.90;17.93;;;9.20;90.90;;;;;;5092764;28;20624;-50
2021/03/17 07:20:43;;;;;;;18.77;16.37;;;9.20;90.90;;;;;;5088217;28;20684;-50
2021/03/17 07:23:39;;;;;;;20.47;16.47;;;9.20;90.70;;;;;;5094606;28;20695;-50
2021/03/17 07:26:14;;;;;;;20.03;16.17;;;9.20;90.70;;;;;;5076000;28;20648;-49
2021/03/17 07:29:01;;;;;;;25.63;18.63;;;9.20;90.40;;;;;;5093174;28;20615;-51
2021/03/17 07:31:28;;;;;;;17.70;14.53;;;9.20;90.50;;;;;;5092782;28;20671;-52
2021/03/17 07:34:07;;;;;;;19.50;16.20;;;9.20;90.40;;;;;;5073508;28;20636;-53
2021/03/17 07:36:36;;;;;;;21.27;17.40;;;9.20;90.40;;;;;;5073855;28;20636;-50
2021/03/17 07:39:07;;;;;;;16.77;15.07;;;9.30;90.50;;;;;;5072849;28;21244;-50
2021/03/17 07:41:34;;;;;;;20.80;17.80;;;9.20;90.30;;;;;;5073604;28;20665;-50
2021/03/17 07:44:02;;;;;;;19.53;15.57;;;9.20;90.50;;;;;;5070873;28;20672;-50
2021/03/17 07:46:29;;;;;;;21.57;16.00;;;9.30;90.50;;;;;;5073011;28;20672;-50
2021/03/17 07:48:56;;;;;;;18.40;14.87;;;9.30;90.50;;;;;;5073676;28;20652;-51
2021/03/17 07:51:23;;;;;;;17.33;15.30;;;9.40;90.50;;;;;;5073736;28;21250;-50
2021/03/17 07:53:51;;;;;;;17.03;14.50;;;9.40;90.60;;;;;;5074359;28;20670;-52
2021/03/17 07:56:20;;;;;;;18.50;15.27;;;9.40;90.50;;;;;;5089107;28;21061;-51
2021/03/17 07:58:48;;;;;;;17.60;15.03;;;9.50;90.50;;;;;;5092298;28;20658;-51
2021/03/17 08:01:15;;;;;;;14.83;12.60;;;9.50;90.40;;;;;;5092528;28;20679;-51
2021/03/17 08:03:42;;;;;;;20.00;15.80;;;9.50;90.20;;;;;;5092829;28;21220;-50
2021/03/17 08:06:10;;;;;;;16.93;14.37;;;9.50;90.00;;;;;;5092777;28;20735;-51
2021/03/17 08:08:36;;;;;;;20.93;15.50;;;9.50;89.70;;;;;;5092490;28;20667;-50
2021/03/17 08:11:03;;;;;;;20.20;18.07;;;9.50;90.00;;;;;;5092469;28;20692;-52
2021/03/17 08:13:30;;;;;;;20.13;16.03;;;9.50;89.80;;;;;;5092590;28;20658;-52
2021/03/17 08:15:57;;;;;;;19.27;14.90;;;9.50;88.50;;;;;;5092895;28;21029;-51
2021/03/17 08:18:39;;;;;;;21.47;14.77;;;9.40;88.30;;;;;;5090782;28;20674;-52
2021/03/17 08:21:06;;;;;;;14.77;13.20;;;9.40;88.00;;;;;;5092767;28;20686;-51
2021/03/17 08:23:40;;;;;;;15.83;13.90;;;9.40;87.50;;;;;;5092108;28;20930;-51
2021/03/17 08:26:08;;;;;;;17.20;13.63;;;9.40;87.80;;;;;;5091962;28;20668;-52
2021/03/17 08:28:46;;;;;;;14.53;13.03;;;9.40;88.00;;;;;;5090922;28;20756;-52
2021/03/17 08:31:23;;;;;;;17.63;13.50;;;9.50;88.40;;;;;;5092261;28;20707;-52
2021/03/17 08:33:50;;;;;;;14.60;11.07;;;9.50;88.00;;;;;;5092093;28;20655;-52
2021/03/17 08:36:16;;;;;;;15.77;12.53;;;9.60;88.00;;;;;;5090545;28;20682;-51
2021/03/17 08:38:51;;;;;;;19.70;14.50;;;9.60;87.50;;;;;;5091710;28;20988;-51
2021/03/17 08:41:35;;;;;;;15.73;10.53;;;9.70;87.50;;;;;;5092929;28;20646;-50
2021/03/17 08:44:10;;;;;;;15.17;11.13;;;9.70;86.40;;;;;;5079292;28;21269;-51
2021/03/17 08:46:37;;;;;;;14.07;12.70;;;9.80;84.10;;;;;;5090861;28;20655;-51
2021/03/17 08:49:04;;;;;;;11.80;10.37;;;9.80;83.90;;;;;;5090592;28;20660;-51
2021/03/17 08:52:08;;;;;;;11.47;10.20;;;9.80;84.20;;;;;;5091819;28;20697;-51
2021/03/17 08:54:55;;;;;;;13.70;11.50;;;9.70;83.40;;;;;;5091677;28;21189;-51
2021/03/17 08:57:22;;;;;;;12.80;10.60;;;9.70;83.70;;;;;;5091648;28;20621;-50
2021/03/17 08:59:50;;;;;;;12.20;10.23;;;9.70;84.40;;;;;;5091693;28;20709;-50
2021/03/17 09:02:50;;;;;;;14.23;11.43;;;9.70;85.10;;;;;;5091529;28;20655;-50
2021/03/17 09:05:20;;;;;;;16.83;12.53;;;9.70;84.70;;;;;;5086144;28;20764;-50
2021/03/17 09:08:03;;;;;;;20.50;11.83;;;9.80;85.70;;;;;;5090862;28;20640;-49
2021/03/17 09:10:42;;;;;;;16.97;13.20;;;9.80;83.90;;;;;;5089072;28;20713;-49
2021/03/17 09:13:09;;;;;;;15.87;13.43;;;9.90;84.30;;;;;;5091225;28;20616;-50
2021/03/17 09:15:46;;;;;;;12.43;8.90;;;9.90;84.60;;;;;;5091096;28;20674;-50
2021/03/17 09:18:13;;;;;;;14.10;11.50;;;9.90;84.10;;;;;;5090640;28;20661;-50
2021/03/17 09:20:41;;;;;;;14.60;12.50;;;9.80;84.20;;;;;;5089709;28;20695;-50
2021/03/17 09:23:16;;;;;;;11.33;10.23;;;9.80;84.60;;;;;;5090943;28;20620;-50
2021/03/17 09:25:45;;;;;;;16.43;11.80;;;9.90;85.60;;;;;;5091358;28;20648;-50
2021/03/17 09:28:14;;;;;;;12.07;10.80;;;10.00;84.80;;;;;;5090327;28;20659;-50
2021/03/17 09:30:49;;;;;;;12.97;11.50;;;10.10;84.10;;;;;;5090826;28;20692;-50
2021/03/17 09:33:17;;;;;;;11.20;10.10;;;10.10;83.90;;;;;;5091275;28;20612;-50
2021/03/17 09:35:52;;;;;;;11.23;8.87;;;10.10;83.40;;;;;;5091457;28;20757;-50
2021/03/17 09:38:20;;;;;;;12.13;9.50;;;10.00;84.10;;;;;;5091238;28;20688;-51
2021/03/17 09:40:53;;;;;;;11.97;10.77;;;9.70;86.90;;;;;;5090718;28;20655;-50
2021/03/17 09:43:34;;;;;;;13.70;12.20;;;9.60;88.10;;;;;;5091492;28;20659;-50
2021/03/17 09:46:01;;;;;;;12.97;10.63;;;9.70;87.90;;;;;;5089323;28;20632;-50
2021/03/17 09:48:28;;;;;;;12.23;10.43;;;9.70;88.30;;;;;;5091036;28;20701;-50
2021/03/17 09:50:56;;;;;;;9.50;7.83;;;9.80;87.90;;;;;;5091030;28;21216;-51
2021/03/17 09:53:22;;;;;;;10.17;7.13;;;9.90;86.90;;;;;;5091141;28;20659;-52
2021/03/17 09:55:49;;;;;;;8.33;7.43;;;10.00;85.20;;;;;;5090644;28;20624;-52
2021/03/17 09:58:17;;;;;;;11.03;9.73;;;10.20;84.20;;;;;;5090934;28;20663;-53
2021/03/17 10:00:47;;;;;;;9.17;8.27;;;10.20;83.30;;;;;;5091350;28;20705;-52
2021/03/17 10:03:14;;;;;;;10.57;8.20;;;10.30;83.70;;;;;;5090983;28;20660;-54
2021/03/17 10:05:42;;;;;;;9.33;8.33;;;10.50;83.40;;;;;;5091151;28;20660;-52
2021/03/17 10:08:09;;;;;;;8.83;8.00;;;10.70;82.40;;;;;;5090841;28;20648;-53
2021/03/17 10:10:36;;;;;;;9.03;6.27;;;10.80;80.10;;;;;;5091038;28;20995;-52
2021/03/17 10:13:03;;;;;;;7.63;6.93;;;10.80;78.80;;;;;;5090824;28;21316;-53
2021/03/17 10:15:31;;;;;;;8.43;7.63;;;10.80;78.60;;;;;;5091037;28;21184;-53
2021/03/17 10:17:58;;;;;;;8.73;7.87;;;10.60;80.10;;;;;;5090561;28;20660;-52
2021/03/17 10:20:26;;;;;;;8.30;7.50;;;10.50;80.60;;;;;;5091105;28;20644;-53
2021/03/17 10:22:57;;;;;;;12.33;8.00;;;10.50;81.30;;;;;;5090824;28;20663;-54
2021/03/17 10:25:25;;;;;;;7.03;6.37;;;10.50;81.60;;;;;;5090995;28;20648;-52
2021/03/17 10:27:53;;;;;;;6.97;6.27;;;10.60;80.60;;;;;;5090885;28;20624;-53
2021/03/17 10:30:26;;;;;;;9.27;7.90;;;10.70;80.10;;;;;;5090861;28;20688;-52
2021/03/17 10:32:55;;;;;;;9.93;8.63;;;10.70;77.20;;;;;;5090026;28;20687;-53
2021/03/17 10:35:22;;;;;;;6.90;5.93;;;10.60;76.90;;;;;;5090771;28;20659;-52
2021/03/17 10:37:49;;;;;;;6.70;5.50;;;10.40;77.10;;;;;;5090194;28;20652;-52
2021/03/17 10:40:17;;;;;;;6.43;5.37;;;10.20;77.10;;;;;;5090298;28;20721;-52
2021/03/17 10:42:45;;;;;;;4.50;4.10;;;10.10;78.00;;;;;;5090423;28;20656;-53
2021/03/17 10:45:14;;;;;;;5.20;4.70;;;10.10;76.90;;;;;;5090500;28;21433;-53
2021/03/17 10:47:41;;;;;;;5.43;4.90;;;10.00;76.80;;;;;;5090349;28;21201;-51
2021/03/17 10:50:12;;;;;;;5.87;4.87;;;10.00;78.00;;;;;;5090067;28;20696;-52
2021/03/17 10:52:40;;;;;;;5.37;4.73;;;10.20;78.80;;;;;;5092675;28;21222;-53
2021/03/17 10:55:15;;;;;;;5.17;4.67;;;10.40;78.70;;;;;;5094455;28;21261;-53
2021/03/17 10:57:42;;;;;;;5.20;4.70;;;10.50;77.90;;;;;;5094607;28;21032;-53
2021/03/17 11:00:18;;;;;;;7.40;6.80;;;10.80;78.60;;;;;;5094010;28;20648;-52
2021/03/17 11:02:44;;;;;;;9.07;6.90;;;11.30;78.50;;;;;;5094418;28;20648;-53
2021/03/17 11:05:16;;;;;;;7.77;6.97;;;11.90;77.40;;;;;;5094255;28;20628;-56
2021/03/17 11:07:54;;;;;;;8.23;7.53;;;12.30;74.70;;;;;;5093857;28;20674;-53
2021/03/17 11:10:46;;;;;;;8.23;7.40;;;12.30;71.90;;;;;;5093933;28;21288;-54
2021/03/17 11:13:36;;;;;;;9.07;8.20;;;12.10;71.10;;;;;;5094082;28;20654;-53
2021/03/17 11:16:13;;;;;;;8.83;7.37;;;11.90;71.70;;;;;;5093713;28;21035;-53
2021/03/17 11:18:45;;;;;;;8.13;7.33;;;11.70;72.70;;;;;;5093920;28;20632;-54
2021/03/17 11:21:18;;;;;;;7.47;6.33;;;11.50;73.10;;;;;;5093765;28;20683;-53
2021/03/17 11:23:45;;;;;;;11.80;6.60;;;11.30;73.60;;;;;;5094302;28;20661;-54
2021/03/17 11:26:20;;;;;;;6.53;5.63;;;11.10;73.70;;;;;;5094312;28;21136;-53
2021/03/17 11:28:47;;;;;;;10.23;6.57;;;11.00;74.60;;;;;;5093466;28;20652;-53
2021/03/17 11:31:22;;;;;;;6.87;5.93;;;10.90;75.00;;;;;;5093347;28;20707;-53
2021/03/17 11:33:49;;;;;;;6.23;5.63;;;10.90;74.80;;;;;;5093989;28;20647;-53
2021/03/17 11:36:16;;;;;;;9.13;5.70;;;10.90;74.90;;;;;;5093748;28;20651;-51
2021/03/17 11:38:43;;;;;;;6.47;5.73;;;10.90;74.40;;;;;;5093841;28;20619;-52
2021/03/17 11:41:10;;;;;;;7.33;4.70;;;10.90;74.60;;;;;;5093813;28;20698;-52
2021/03/17 11:43:37;;;;;;;5.63;5.10;;;10.80;73.40;;;;;;5094260;28;20652;-50
2021/03/17 11:46:04;;;;;;;5.10;4.00;;;10.80;73.50;;;;;;5093508;28;20702;-51
2021/03/17 11:48:31;;;;;;;4.00;3.67;;;10.70;73.80;;;;;;5093843;28;20666;-51
2021/03/17 11:50:58;;;;;;;7.83;5.10;;;10.60;74.00;;;;;;5094240;28;20688;-50
2021/03/17 11:53:27;;;;;;;4.90;3.80;;;10.60;73.70;;;;;;5093331;28;20691;-50
2021/03/17 11:55:54;;;;;;;10.40;4.33;;;10.70;74.70;;;;;;5093010;28;21129;-49
2021/03/17 11:58:20;;;;;;;4.93;2.40;;;10.80;73.00;;;;;;5093366;28;20627;-50
2021/03/17 12:00:47;;;;;;;2.00;1.63;;;11.00;69.50;;;;;;5092735;28;21106;-51
2021/03/17 12:03:14;;;;;;;1.40;1.30;;;11.10;68.00;;;;;;5092277;28;20659;-50
2021/03/17 12:05:41;;;;;;;1.70;1.33;;;11.20;62.30;;;;;;5093221;28;20757;-50
2021/03/17 12:08:08;;;;;;;1.83;1.10;;;11.20;59.50;;;;;;5092582;28;20607;-52
2021/03/17 12:10:36;;;;;;;2.03;1.60;;;11.20;58.30;;;;;;5093008;28;20687;-52
2021/03/17 12:13:03;;;;;;;3.07;1.53;;;11.20;58.90;;;;;;5092317;28;20699;-51
2021/03/17 12:15:30;;;;;;;3.50;1.30;;;11.10;59.20;;;;;;5092522;28;20750;-50
2021/03/17 12:17:57;;;;;;;2.87;1.27;;;11.10;58.60;;;;;;5092594;28;20647;-51
2021/03/17 12:20:25;;;;;;;4.13;1.80;;;11.00;55.90;;;;;;5092950;28;20702;-50
2021/03/17 12:22:51;;;;;;;2.47;1.57;;;11.00;55.80;;;;;;5092327;28;20632;-50
2021/03/17 12:25:19;;;;;;;4.30;1.90;;;11.00;56.30;;;;;;5092578;28;20651;-51
2021/03/17 12:27:46;;;;;;;3.20;1.27;;;10.90;56.50;;;;;;5092041;28;20977;-51
2021/03/17 12:30:15;;;;;;;3.70;1.17;;;10.90;55.60;;;;;;5092877;28;20745;-50
2021/03/17 12:32:41;;;;;;;2.00;1.30;;;10.90;56.00;;;;;;5092476;28;20709;-51
2021/03/17 12:35:09;;;;;;;3.60;1.20;;;10.90;56.50;;;;;;5091049;28;20631;-50
2021/03/17 12:37:37;;;;;;;1.67;1.57;;;10.90;56.40;;;;;;5091700;28;20998;-51
2021/03/17 12:40:04;;;;;;;5.77;2.13;;;10.90;56.70;;;;;;5092209;28;20687;-49
2021/03/17 12:42:31;;;;;;;2.30;1.30;;;11.10;57.20;;;;;;5091967;28;20659;-51
2021/03/17 12:44:59;;;;;;;5.90;1.63;;;11.10;56.60;;;;;;5092479;28;20678;-49
2021/03/17 12:47:25;;;;;;;1.70;1.60;;;11.20;56.10;;;;;;5091439;28;20998;-48
2021/03/17 12:49:52;;;;;;;3.37;2.33;;;11.30;55.50;;;;;;5091902;28;20680;-50
2021/03/17 12:52:19;;;;;;;4.83;1.90;;;11.40;55.20;;;;;;5092144;28;20684;-49